Time;durP1;ratioP1;P1;durP2;ratioP2;P2;SDS_P1;SDS_P2;PMS_P1;PMS_P2;Temp;Humidity;BMP_temperature;BMP_pressure;BME280_temperature;BME280_humidity;BME280_pressure;Samples;Min_cycle;Max_cycle;Signal;HPM_P1;HPM_P2
2022/03/23 00:00:03;;;;;;;19.79;13.39;;;;;;;1.67;53.75;102689.22;457767;115;924622;-69
2022/03/23 00:01:09;;;;;;;14.11;12.61;;;;;;;1.68;53.70;102684.70;455692;115;922603;-69
2022/03/23 00:02:13;;;;;;;16.66;14.80;;;;;;;1.68;53.58;102687.39;457778;115;922613;-69
2022/03/23 00:03:16;;;;;;;15.60;13.89;;;;;;;1.66;53.50;102686.63;457309;115;922625;-69
2022/03/23 00:04:20;;;;;;;16.48;14.80;;;;;;;1.63;53.42;102686.84;457050;115;930810;-69
2022/03/23 00:05:25;;;;;;;16.06;14.41;;;;;;;1.57;53.36;102685.44;456998;115;922503;-69
2022/03/23 00:06:28;;;;;;;14.86;13.22;;;;;;;1.51;53.33;102684.99;457589;115;922549;-69
2022/03/23 00:07:33;;;;;;;15.46;13.76;;;;;;;1.45;53.34;102674.66;457385;115;922949;-69
2022/03/23 00:08:36;;;;;;;17.48;13.46;;;;;;;1.40;53.36;102684.86;456962;115;922613;-69
2022/03/23 00:09:39;;;;;;;15.13;13.43;;;;;;;1.35;53.35;102687.87;457519;115;922690;-71
2022/03/23 00:10:45;;;;;;;14.63;13.13;;;;;;;1.29;53.47;102680.22;456879;115;923062;-68
2022/03/23 00:11:48;;;;;;;16.99;14.34;;;;;;;1.23;53.51;102678.80;457850;115;922493;-69
2022/03/23 00:12:51;;;;;;;14.10;12.68;;;;;;;1.19;53.54;102682.67;457530;115;922667;-70
2022/03/23 00:13:55;;;;;;;14.22;12.71;;;;;;;1.15;53.70;102674.92;457131;115;922570;-70
2022/03/23 00:14:58;;;;;;;14.17;12.67;;;;;;;1.12;53.74;102669.73;457135;115;922980;-69
2022/03/23 00:16:04;;;;;;;15.89;12.93;;;;;;;1.09;53.89;102673.52;457461;115;922685;-69
2022/03/23 00:17:07;;;;;;;14.43;12.23;;;;;;;1.07;54.15;102667.37;457785;115;923053;-71
2022/03/23 00:18:11;;;;;;;14.21;12.80;;;;;;;1.05;54.16;102666.59;457838;115;922898;-68
2022/03/23 00:19:17;;;;;;;14.19;12.81;;;;;;;1.03;54.16;102668.55;457798;115;922532;-69
2022/03/23 00:20:21;;;;;;;15.67;13.42;;;;;;;1.00;54.19;102673.23;457111;115;922637;-69
2022/03/23 00:21:27;;;;;;;16.06;14.44;;;;;;;0.97;54.22;102662.71;456987;115;923005;-70
2022/03/23 00:22:30;;;;;;;16.29;14.35;;;;;;;0.93;54.29;102666.58;457083;115;922461;-70
2022/03/23 00:23:33;;;;;;;15.76;13.99;;;;;;;0.89;54.34;102663.20;457354;115;930720;-68
2022/03/23 00:24:37;;;;;;;18.46;14.93;;;;;;;0.86;54.44;102663.42;457721;115;922657;-69
2022/03/23 00:25:40;;;;;;;16.96;14.11;;;;;;;0.83;54.53;102664.47;457120;115;923244;-70
2022/03/23 00:26:44;;;;;;;13.70;12.31;;;;;;;0.83;54.68;102666.30;457376;115;923706;-70
2022/03/23 00:27:47;;;;;;;16.58;13.89;;;;;;;0.82;54.78;102670.84;457945;115;922562;-69
2022/03/23 00:28:51;;;;;;;16.84;15.10;;;;;;;0.83;54.91;102667.16;456875;115;930604;-69
2022/03/23 00:29:54;;;;;;;18.03;16.15;;;;;;;0.83;55.03;102659.10;456984;115;923433;-70
2022/03/23 00:30:58;;;;;;;17.41;14.71;;;;;;;0.83;54.96;102668.98;456408;115;922964;-69
2022/03/23 00:32:05;;;;;;;17.83;14.79;;;;;;;0.81;55.02;102669.11;455884;115;922769;-70
2022/03/23 00:33:08;;;;;;;16.32;14.11;;;;;;;0.78;54.96;102668.42;452427;115;922744;-69
2022/03/23 00:34:13;;;;;;;16.61;14.22;;;;;;;0.74;55.00;102669.59;458363;115;923203;-69
2022/03/23 00:35:17;;;;;;;15.98;14.40;;;;;;;0.73;55.11;102670.55;458382;115;922498;-69
2022/03/23 00:36:24;;;;;;;16.14;14.40;;;;;;;0.71;55.21;102664.44;457751;115;922617;-71
2022/03/23 00:37:27;;;;;;;15.80;14.12;;;;;;;0.70;55.31;102660.89;453179;115;922545;-70
2022/03/23 00:38:31;;;;;;;17.91;14.30;;;;;;;0.69;55.25;102653.80;457849;115;930331;-69
2022/03/23 00:39:34;;;;;;;17.36;15.00;;;;;;;0.68;55.31;102659.25;455565;115;930558;-69
2022/03/23 00:40:38;;;;;;;16.77;14.93;;;;;;;0.67;55.31;102657.53;452584;115;922727;-69
2022/03/23 00:41:42;;;;;;;17.37;15.19;;;;;;;0.66;55.34;102661.20;455445;115;922522;-69
2022/03/23 00:42:45;;;;;;;15.94;13.72;;;;;;;0.65;55.40;102656.78;458261;115;922633;-69
2022/03/23 00:43:49;;;;;;;14.55;13.08;;;;;;;0.62;55.50;102649.78;458455;115;922555;-69
2022/03/23 00:44:52;;;;;;;14.11;12.37;;;;;;;0.63;55.65;102650.64;457639;115;922550;-69
2022/03/23 00:45:58;;;;;;;13.82;11.88;;;;;;;0.63;55.74;102650.64;457387;115;922629;-71
2022/03/23 00:47:01;;;;;;;15.89;12.58;;;;;;;0.65;55.83;102643.36;453038;115;923046;-68
2022/03/23 00:48:05;;;;;;;16.29;13.98;;;;;;;0.67;55.78;102652.16;452832;115;922464;-68
2022/03/23 00:49:09;;;;;;;15.55;13.92;;;;;;;0.67;55.91;102641.42;452879;115;925539;-69
2022/03/23 00:50:13;;;;;;;17.24;14.31;;;;;;;0.67;55.91;102644.97;452812;115;922686;-70
2022/03/23 00:51:16;;;;;;;15.04;13.52;;;;;;;0.67;55.81;102644.10;456795;115;930445;-69
2022/03/23 00:52:20;;;;;;;23.95;14.93;;;;;;;0.66;55.76;102642.41;452840;115;922560;-70
2022/03/23 00:53:23;;;;;;;16.41;14.29;;;;;;;0.65;55.72;102635.31;452627;115;922567;-70
2022/03/23 00:54:26;;;;;;;15.36;13.26;;;;;;;0.64;55.78;102636.27;452952;115;922820;-70
2022/03/23 00:55:30;;;;;;;16.96;14.43;;;;;;;0.62;55.84;102632.81;452945;115;922849;-71
2022/03/23 00:56:33;;;;;;;20.30;15.24;;;;;;;0.61;55.90;102626.58;452794;115;922765;-69
2022/03/23 00:57:38;;;;;;;22.33;16.13;;;;;;;0.60;55.96;102630.25;452722;115;922482;-71
2022/03/23 00:58:42;;;;;;;23.30;16.33;;;;;;;0.60;55.91;102627.56;452820;115;922389;-68
2022/03/23 00:59:45;;;;;;;24.86;15.99;;;;;;;0.58;55.92;102629.48;452780;115;922880;-69
2022/03/23 01:00:48;;;;;;;24.54;16.27;;;;;;;0.57;55.89;102633.12;457288;115;922822;-72
2022/03/23 01:01:52;;;;;;;20.14;15.30;;;;;;;0.54;55.86;102630.64;458267;115;922410;-70
2022/03/23 01:02:56;;;;;;;20.22;14.49;;;;;;;0.52;55.94;102627.19;458148;115;930439;-70
2022/03/23 01:04:00;;;;;;;16.37;14.43;;;;;;;0.50;56.04;102622.90;458464;115;922788;-69
2022/03/23 01:05:04;;;;;;;17.99;13.71;;;;;;;0.48;56.04;102625.67;453834;115;922669;-71
2022/03/23 01:06:08;;;;;;;17.22;13.09;;;;;;;0.45;56.07;102624.99;457028;115;930895;-71
2022/03/23 01:07:11;;;;;;;15.94;12.71;;;;;;;0.44;56.12;102625.98;457172;115;922518;-68
2022/03/23 01:08:15;;;;;;;16.21;12.79;;;;;;;0.40;56.10;102626.16;452605;115;922602;-67
2022/03/23 01:09:22;;;;;;;21.13;13.68;;;;;;;0.39;56.11;102620.88;452557;115;930342;-68
2022/03/23 01:10:25;;;;;;;16.60;13.57;;;;;;;0.36;56.07;102626.46;452461;115;922673;-71
2022/03/23 01:11:29;;;;;;;14.02;12.28;;;;;;;0.33;56.14;102619.45;452609;115;922537;-68
2022/03/23 01:12:34;;;;;;;16.18;12.83;;;;;;;0.30;56.18;102616.98;452536;115;923313;-68
2022/03/23 01:13:38;;;;;;;14.85;13.05;;;;;;;0.29;56.27;102620.63;452539;115;923046;-70
2022/03/23 01:14:42;;;;;;;19.13;14.52;;;;;;;0.29;56.32;102619.76;453375;115;930421;-70
2022/03/23 01:15:46;;;;;;;15.92;12.72;;;;;;;0.27;56.38;102621.70;458461;115;922531;-71
2022/03/23 01:16:51;;;;;;;14.58;12.95;;;;;;;0.27;56.46;102627.06;458162;115;922564;-69
2022/03/23 01:17:54;;;;;;;15.58;13.44;;;;;;;0.26;56.50;102626.20;458034;115;922505;-69
2022/03/23 01:18:58;;;;;;;14.66;13.01;;;;;;;0.24;56.52;102621.88;458503;115;930399;-68
2022/03/23 01:20:03;;;;;;;14.94;12.55;;;;;;;0.22;56.40;102624.65;455744;115;930422;-70
2022/03/23 01:21:06;;;;;;;14.80;12.34;;;;;;;0.20;56.60;102621.23;452490;115;930408;-69
2022/03/23 01:22:09;;;;;;;13.93;12.53;;;;;;;0.19;56.64;102618.63;452613;115;922550;-69
2022/03/23 01:23:13;;;;;;;15.69;12.24;;;;;;;0.17;56.79;102620.54;452549;115;930481;-69
2022/03/23 01:24:18;;;;;;;13.61;12.21;;;;;;;0.16;56.75;102621.53;452487;115;930332;-71
2022/03/23 01:25:21;;;;;;;13.94;11.75;;;;;;;0.15;56.77;102619.80;452626;115;922486;-70
2022/03/23 01:26:25;;;;;;;18.40;13.09;;;;;;;0.14;56.78;102615.39;455820;115;922498;-68
2022/03/23 01:27:30;;;;;;;17.67;12.79;;;;;;;0.14;56.77;102616.25;454844;115;922903;-70
2022/03/23 01:28:34;;;;;;;14.01;12.54;;;;;;;0.14;56.89;102618.94;455125;115;922569;-69
2022/03/23 01:29:38;;;;;;;17.95;13.26;;;;;;;0.16;56.99;102613.48;457144;115;922472;-69
2022/03/23 01:30:43;;;;;;;17.72;12.81;;;;;;;0.19;57.07;102619.50;452405;115;922547;-70
2022/03/23 01:31:46;;;;;;;18.43;12.66;;;;;;;0.20;57.04;102618.55;458286;115;922475;-69
2022/03/23 01:32:50;;;;;;;20.58;13.86;;;;;;;0.22;56.95;102618.45;454364;115;922657;-69
2022/03/23 01:33:59;;;;;;;19.37;15.42;;;;;;;0.21;56.97;102617.59;456541;115;922681;-70
2022/03/23 01:34:59;;;;;;;18.83;13.39;;;;;;;0.22;56.92;102619.28;455499;115;923161;-69
2022/03/23 01:36:03;;;;;;;18.32;13.70;;;;;;;0.22;56.84;102618.45;457670;115;923216;-68
2022/03/23 01:37:07;;;;;;;19.91;14.39;;;;;;;0.19;56.77;102622.18;457590;115;930516;-67
2022/03/23 01:38:10;;;;;;;17.47;14.41;;;;;;;0.18;56.70;102611.54;457490;115;922544;-68
2022/03/23 01:39:14;;;;;;;15.86;13.33;;;;;;;0.15;56.72;102617.98;456244;115;922657;-69
2022/03/23 01:40:18;;;;;;;16.79;13.39;;;;;;;0.14;56.73;102616.25;456681;115;922651;-70
2022/03/23 01:41:23;;;;;;;17.76;13.89;;;;;;;0.11;56.69;102610.23;456311;115;922970;-69
2022/03/23 01:42:28;;;;;;;14.46;12.87;;;;;;;0.08;56.69;102616.64;456032;115;922570;-71
2022/03/23 01:43:33;;;;;;;18.20;14.22;;;;;;;0.06;56.70;102613.17;457190;115;923046;-71
2022/03/23 01:44:38;;;;;;;17.02;13.22;;;;;;;0.03;56.67;102613.39;457726;115;922636;-69
2022/03/23 01:45:42;;;;;;;15.03;13.05;;;;;;;0.02;56.74;102617.02;457364;115;922482;-69
2022/03/23 01:47:03;;;;;;;15.29;12.92;;;;;;;0.01;56.85;102612.61;456931;115;930338;-68
2022/03/23 01:48:07;;;;;;;20.43;13.05;;;;;;;-0.01;56.87;102609.19;457307;115;922690;-68
2022/03/23 01:49:13;;;;;;;14.86;12.81;;;;;;;-0.01;56.96;102610.05;457555;115;922601;-68
2022/03/23 01:50:18;;;;;;;13.50;12.11;;;;;;;-0.01;56.99;102612.73;457227;115;922913;-68
2022/03/23 01:51:21;;;;;;;13.81;12.33;;;;;;;0.00;57.07;102608.23;457199;115;922785;-69
2022/03/23 01:52:28;;;;;;;14.74;12.92;;;;;;;0.00;57.00;102610.91;457769;115;930352;-69
2022/03/23 01:53:31;;;;;;;16.89;13.11;;;;;;;-0.01;56.97;102607.38;457300;115;923229;-69
2022/03/23 01:54:36;;;;;;;19.32;13.04;;;;;;;-0.01;57.10;102609.19;456704;115;922597;-68
2022/03/23 01:55:39;;;;;;;14.31;12.72;;;;;;;-0.02;57.16;102600.28;456992;115;922543;-71
2022/03/23 01:56:44;;;;;;;15.89;13.94;;;;;;;0.00;57.33;102606.38;447307;117;930947;-67
2022/03/23 01:57:51;;;;;;;16.04;14.14;;;;;;;0.02;57.35;102610.80;448010;116;922656;-68
2022/03/23 01:58:55;;;;;;;17.32;15.53;;;;;;;0.03;57.34;102610.70;456895;115;922677;-68
2022/03/23 01:59:58;;;;;;;17.85;15.11;;;;;;;0.03;57.25;102616.07;457802;115;922972;-69
2022/03/23 02:01:02;;;;;;;18.70;15.14;;;;;;;0.02;57.21;102614.34;457720;115;923118;-71
2022/03/23 02:02:06;;;;;;;17.54;15.14;;;;;;;0.02;57.12;102610.80;457183;115;922640;-71
2022/03/23 02:03:12;;;;;;;17.61;14.83;;;;;;;0.00;57.14;102605.55;456895;115;930596;-70
2022/03/23 02:04:16;;;;;;;15.94;14.36;;;;;;;0.00;57.13;102613.59;457111;115;922561;-68
2022/03/23 02:05:20;;;;;;;17.86;14.98;;;;;;;-0.01;57.19;102609.19;457075;115;922679;-68
2022/03/23 02:06:25;;;;;;;18.22;14.78;;;;;;;-0.03;57.15;102608.41;457732;115;922652;-69
2022/03/23 02:07:30;;;;;;;17.87;14.44;;;;;;;-0.04;57.20;102604.86;446064;118;922647;-68
2022/03/23 02:08:34;;;;;;;19.41;14.88;;;;;;;-0.04;57.11;102609.36;447717;116;930776;-70
2022/03/23 02:09:38;;;;;;;16.41;13.66;;;;;;;-0.05;57.18;102604.95;457471;115;922592;-69
2022/03/23 02:10:43;;;;;;;16.67;14.27;;;;;;;-0.05;57.23;102607.63;457318;115;922568;-69
2022/03/23 02:11:49;;;;;;;16.12;14.14;;;;;;;-0.06;57.16;102603.25;457561;115;922541;-70
2022/03/23 02:12:52;;;;;;;16.95;14.80;;;;;;;-0.07;57.10;102610.44;457981;115;922630;-69
2022/03/23 02:13:57;;;;;;;14.51;12.78;;;;;;;-0.08;57.14;102602.48;457835;115;922494;-70
2022/03/23 02:15:03;;;;;;;15.96;12.86;;;;;;;-0.09;57.15;102611.48;457045;115;923168;-69
2022/03/23 02:16:08;;;;;;;17.47;12.23;;;;;;;-0.11;57.19;102605.37;456601;115;930385;-69
2022/03/23 02:17:12;;;;;;;15.11;12.89;;;;;;;-0.12;57.15;102611.68;457780;115;922614;-70
2022/03/23 02:18:16;;;;;;;15.92;11.71;;;;;;;-0.12;57.15;102604.50;457591;115;922795;-69
2022/03/23 02:19:23;;;;;;;13.68;12.26;;;;;;;-0.13;57.12;102600.09;446463;117;923042;-69
2022/03/23 02:20:27;;;;;;;14.03;11.77;;;;;;;-0.13;57.08;102599.23;447479;115;922669;-70
2022/03/23 02:21:30;;;;;;;12.96;11.25;;;;;;;-0.13;57.08;102596.55;457102;115;922544;-69
2022/03/23 02:22:34;;;;;;;16.70;11.68;;;;;;;-0.15;57.07;102595.77;457137;115;922584;-69
2022/03/23 02:23:37;;;;;;;15.35;11.87;;;;;;;-0.17;56.96;102595.89;456696;115;930511;-70
2022/03/23 02:24:41;;;;;;;12.99;11.55;;;;;;;-0.18;56.96;102599.52;457673;115;922617;-69
2022/03/23 02:25:46;;;;;;;12.44;11.03;;;;;;;-0.19;56.97;102596.93;457788;115;922516;-68
2022/03/23 02:26:49;;;;;;;13.24;11.84;;;;;;;-0.20;57.07;102600.56;456845;115;922626;-68
2022/03/23 02:27:54;;;;;;;14.29;12.26;;;;;;;-0.20;57.11;102589.84;457161;115;923149;-66
2022/03/23 02:29:00;;;;;;;13.97;12.56;;;;;;;-0.22;57.06;102591.78;457720;115;922589;-70
2022/03/23 02:30:06;;;;;;;15.19;12.01;;;;;;;-0.23;57.08;102584.69;457432;115;922544;-69
2022/03/23 02:31:10;;;;;;;12.84;11.33;;;;;;;-0.24;57.05;102594.55;456924;115;922856;-69
2022/03/23 02:32:13;;;;;;;14.84;12.54;;;;;;;-0.25;57.06;102595.50;457162;115;922484;-69
2022/03/23 02:33:19;;;;;;;13.37;11.99;;;;;;;-0.27;57.07;102594.72;457033;115;930514;-69
2022/03/23 02:34:25;;;;;;;15.26;13.63;;;;;;;-0.28;57.14;102601.06;455088;116;930262;-69
2022/03/23 02:35:30;;;;;;;15.46;12.86;;;;;;;-0.31;57.12;102593.19;455019;116;922701;-68
2022/03/23 02:36:35;;;;;;;14.56;13.04;;;;;;;-0.30;57.25;102591.38;445068;118;922753;-69
2022/03/23 02:37:39;;;;;;;13.01;11.68;;;;;;;-0.31;57.32;102597.69;445639;116;930486;-69
2022/03/23 02:38:43;;;;;;;13.40;11.46;;;;;;;-0.32;57.34;102602.19;455157;116;923143;-69
2022/03/23 02:39:46;;;;;;;15.03;12.73;;;;;;;-0.31;57.35;102597.69;455094;116;922492;-72
2022/03/23 02:40:49;;;;;;;14.21;12.25;;;;;;;-0.32;57.41;102595.96;454882;116;922677;-69
2022/03/23 02:41:54;;;;;;;15.04;12.02;;;;;;;-0.32;57.48;102606.69;455177;116;922641;-69
2022/03/23 02:42:57;;;;;;;14.96;13.46;;;;;;;-0.32;57.51;102595.96;455097;116;922635;-69
2022/03/23 02:44:01;;;;;;;14.20;12.78;;;;;;;-0.30;57.53;102599.42;455111;116;922569;-70
2022/03/23 02:45:07;;;;;;;13.47;12.07;;;;;;;-0.31;57.49;102593.19;455168;116;922868;-69
2022/03/23 02:46:15;;;;;;;14.34;11.79;;;;;;;-0.30;57.50;102594.06;453829;116;930341;-69
2022/03/23 02:47:18;;;;;;;12.97;11.69;;;;;;;-0.31;57.49;102587.84;453802;116;922684;-69
2022/03/23 02:48:22;;;;;;;13.07;11.39;;;;;;;-0.31;57.57;102593.19;453944;116;922575;-69
2022/03/23 02:49:25;;;;;;;12.86;11.54;;;;;;;-0.32;57.59;102588.78;453916;116;930291;-69
2022/03/23 02:50:28;;;;;;;12.28;11.11;;;;;;;-0.32;57.59;102588.78;454003;116;923141;-69
2022/03/23 02:51:32;;;;;;;15.23;11.33;;;;;;;-0.31;57.43;102589.65;454322;115;922507;-69
2022/03/23 03:01:51;;;;;;;14.79;10.96;;;;;;;-0.31;57.43;102589.65;454962;116;930217;-68
2022/03/23 03:02:52;;;;;;;16.27;13.93;;;;;;;-0.43;57.65;102573.38;453149;116;923240;-70
2022/03/23 03:03:58;;;;;;;19.08;15.88;;;;;;;-0.47;57.71;102571.85;453907;116;930368;-69
2022/03/23 03:05:03;;;;;;;18.66;15.89;;;;;;;-0.50;57.74;102574.70;453917;116;922639;-68
2022/03/23 03:06:07;;;;;;;18.84;16.52;;;;;;;-0.50;57.75;102571.19;453948;116;923025;-68
2022/03/23 03:07:10;;;;;;;20.08;16.21;;;;;;;-0.53;57.76;102569.55;454051;116;922625;-69
2022/03/23 03:09:35;;;;;;;18.98;16.13;;;;;;;-0.54;57.79;102575.86;453826;116;930781;-68
2022/03/23 03:10:38;;;;;;;20.02;16.01;;;;;;;-0.55;57.89;102571.45;453960;116;922663;-69
2022/03/23 03:11:43;;;;;;;22.22;16.67;;;;;;;-0.53;57.88;102571.36;453944;116;922703;-70
2022/03/23 03:12:48;;;;;;;18.01;15.84;;;;;;;-0.52;57.83;102573.09;454108;116;930534;-69
2022/03/23 03:13:51;;;;;;;21.68;16.51;;;;;;;-0.51;57.86;102572.14;455028;116;922576;-69
2022/03/23 03:14:55;;;;;;;28.23;19.50;;;;;;;-0.51;57.83;102575.69;454405;116;922492;-70
2022/03/23 03:16:02;;;;;;;26.54;18.98;;;;;;;-0.50;57.84;102576.55;454153;116;922740;-70
2022/03/23 03:17:06;;;;;;;27.98;20.06;;;;;;;-0.50;57.81;102574.70;454992;116;922910;-70
2022/03/23 03:18:09;;;;;;;29.86;19.80;;;;;;;-0.49;57.76;102571.07;455171;116;922949;-70
2022/03/23 03:19:13;;;;;;;30.29;19.48;;;;;;;-0.48;57.71;102580.84;454233;116;922927;-69
2022/03/23 03:20:17;;;;;;;29.16;19.99;;;;;;;-0.50;57.71;102572.02;453856;116;930373;-70
2022/03/23 03:21:20;;;;;;;26.46;18.95;;;;;;;-0.49;57.67;102573.75;454501;116;922550;-69
2022/03/23 03:22:25;;;;;;;23.84;17.54;;;;;;;-0.50;57.74;102577.38;455138;116;922599;-70
2022/03/23 03:23:30;;;;;;;28.69;19.59;;;;;;;-0.49;57.78;102573.75;454931;116;930508;-71
2022/03/23 03:24:33;;;;;;;25.20;18.89;;;;;;;-0.49;57.84;102571.07;454884;116;923065;-70
2022/03/23 03:25:36;;;;;;;23.98;17.22;;;;;;;-0.47;57.90;102573.66;453933;116;922964;-69
2022/03/23 03:26:40;;;;;;;17.70;15.30;;;;;;;-0.48;57.77;102570.13;454961;115;923232;-69
2022/03/23 03:27:44;;;;;;;17.74;15.56;;;;;;;-0.47;57.74;102570.98;455117;116;922525;-69
2022/03/23 03:28:49;;;;;;;21.27;16.88;;;;;;;-0.48;57.68;102564.77;454390;116;930536;-68
2022/03/23 03:29:52;;;;;;;17.14;15.27;;;;;;;-0.48;57.64;102570.13;453895;116;930450;-68
2022/03/23 03:30:56;;;;;;;19.62;16.15;;;;;;;-0.50;57.69;102580.06;453944;116;922505;-68
2022/03/23 03:31:59;;;;;;;17.22;14.16;;;;;;;-0.50;57.64;102568.52;453982;116;922964;-69
2022/03/23 03:33:03;;;;;;;15.13;13.06;;;;;;;-0.52;57.62;102584.67;453965;116;930447;-69
2022/03/23 03:34:06;;;;;;;17.04;13.64;;;;;;;-0.53;57.57;102582.95;455656;115;924228;-69
2022/03/23 03:35:10;;;;;;;14.22;12.69;;;;;;;-0.53;57.63;102574.05;457795;115;922727;-68
2022/03/23 03:36:15;;;;;;;13.79;12.39;;;;;;;-0.54;57.66;102570.50;456959;115;922949;-68
2022/03/23 03:37:18;;;;;;;13.29;11.69;;;;;;;-0.55;57.64;102574.12;457164;115;923053;-69
2022/03/23 03:38:21;;;;;;;15.18;12.46;;;;;;;-0.56;57.63;102569.75;457123;115;922561;-69
2022/03/23 03:39:25;;;;;;;17.19;13.75;;;;;;;-0.56;57.59;102571.56;457264;115;922846;-68
2022/03/23 03:40:29;;;;;;;15.89;13.95;;;;;;;-0.58;57.59;102563.61;457881;115;923001;-69
2022/03/23 03:41:32;;;;;;;15.64;14.12;;;;;;;-0.60;57.56;102565.52;457715;115;930367;-70
2022/03/23 03:42:36;;;;;;;14.89;13.33;;;;;;;-0.61;57.58;102571.86;457401;115;930441;-69
2022/03/23 03:43:40;;;;;;;14.46;13.00;;;;;;;-0.62;57.57;102572.80;457792;115;922638;-68
2022/03/23 03:44:44;;;;;;;13.67;12.25;;;;;;;-0.63;57.59;102573.75;457769;115;922597;-68
2022/03/23 03:45:47;;;;;;;12.81;11.49;;;;;;;-0.65;57.60;102570.30;455685;115;923086;-67
2022/03/23 03:46:51;;;;;;;13.09;11.57;;;;;;;-0.65;57.59;102567.62;457414;115;922393;-69
2022/03/23 03:47:54;;;;;;;12.18;11.08;;;;;;;-0.66;57.59;102567.73;457302;115;923085;-69
2022/03/23 03:48:57;;;;;;;12.13;10.59;;;;;;;-0.65;57.60;102567.62;457108;115;922585;-68
2022/03/23 03:50:01;;;;;;;11.32;10.01;;;;;;;-0.66;57.69;102565.89;457042;115;930331;-69
2022/03/23 03:51:09;;;;;;;11.22;10.12;;;;;;;-0.65;57.66;102561.39;457101;115;923052;-69
2022/03/23 03:52:10;;;;;;;11.42;10.23;;;;;;;-0.66;57.62;102568.56;456594;115;922510;-69
2022/03/23 03:53:14;;;;;;;10.64;9.58;;;;;;;-0.66;57.74;102565.06;457033;115;922686;-71
2022/03/23 03:54:18;;;;;;;11.30;10.18;;;;;;;-0.64;57.73;102565.80;457089;115;922655;-69
2022/03/23 03:55:21;;;;;;;10.15;9.18;;;;;;;-0.64;57.75;102568.48;456951;115;923043;-69
2022/03/23 03:56:25;;;;;;;10.32;9.12;;;;;;;-0.64;57.69;102572.02;457065;115;922701;-69
2022/03/23 03:57:28;;;;;;;13.19;9.73;;;;;;;-0.64;57.73;102571.16;457166;115;922660;-70
2022/03/23 03:58:32;;;;;;;10.69;9.52;;;;;;;-0.64;57.65;102560.45;457096;115;922673;-71
2022/03/23 03:59:35;;;;;;;11.82;10.60;;;;;;;-0.64;57.71;102568.48;457757;115;922628;-68
2022/03/23 04:00:39;;;;;;;11.39;9.67;;;;;;;-0.64;57.79;102557.77;458066;115;922560;-69
2022/03/23 04:01:43;;;;;;;10.86;9.42;;;;;;;-0.63;57.77;102570.21;457147;115;922671;-69
2022/03/23 04:02:46;;;;;;;11.70;9.41;;;;;;;-0.63;57.72;102568.39;457853;115;922587;-69
2022/03/23 04:03:50;;;;;;;10.81;9.80;;;;;;;-0.62;57.68;102569.27;457577;115;930042;-69
2022/03/23 04:04:53;;;;;;;12.75;10.02;;;;;;;-0.62;57.67;102571.94;457648;115;930157;-68
2022/03/23 04:05:57;;;;;;;10.89;9.71;;;;;;;-0.61;57.65;102573.67;456620;115;922691;-69
2022/03/23 04:07:01;;;;;;;10.25;9.16;;;;;;;-0.62;57.58;102570.13;457444;115;922460;-69
2022/03/23 04:08:05;;;;;;;14.92;9.32;;;;;;;-0.62;57.61;102567.45;457599;115;922620;-70
2022/03/23 04:09:09;;;;;;;11.80;9.27;;;;;;;-0.60;57.67;102561.97;457552;115;922597;-69
2022/03/23 04:10:12;;;;;;;12.69;9.59;;;;;;;-0.60;57.67;102568.19;457841;115;922541;-70
2022/03/23 04:11:17;;;;;;;12.91;9.69;;;;;;;-0.57;57.63;102556.44;457842;115;922703;-69
2022/03/23 04:12:20;;;;;;;12.46;8.42;;;;;;;-0.57;57.66;102564.48;457065;115;922645;-68
2022/03/23 04:13:24;;;;;;;13.09;9.09;;;;;;;-0.57;57.57;102564.48;457544;115;931083;-69
2022/03/23 04:14:27;;;;;;;11.64;9.64;;;;;;;-0.56;57.55;102576.92;457718;115;922789;-69
2022/03/23 04:15:31;;;;;;;12.44;10.86;;;;;;;-0.55;57.45;102565.26;457739;115;930166;-70
2022/03/23 04:16:34;;;;;;;14.70;11.57;;;;;;;-0.55;57.43;102565.26;457795;115;930397;-68
2022/03/23 04:17:38;;;;;;;14.21;11.96;;;;;;;-0.54;57.52;102564.27;457809;115;930360;-68
2022/03/23 04:18:41;;;;;;;16.52;14.18;;;;;;;-0.54;57.50;102565.14;457822;115;930228;-71
2022/03/23 04:19:44;;;;;;;17.68;14.86;;;;;;;-0.54;57.38;102570.50;457617;115;922859;-69
2022/03/23 04:20:48;;;;;;;16.99;14.99;;;;;;;-0.51;57.53;102572.14;457557;115;922921;-67
2022/03/23 04:21:51;;;;;;;21.86;16.34;;;;;;;-0.50;57.49;102571.19;457481;115;923051;-69
2022/03/23 04:22:55;;;;;;;15.58;14.16;;;;;;;-0.47;57.43;102573.66;457797;115;930517;-68
2022/03/23 04:23:58;;;;;;;15.62;12.70;;;;;;;-0.47;57.47;102573.66;457509;115;930626;-69
2022/03/23 04:25:02;;;;;;;14.67;13.13;;;;;;;-0.48;57.36;102570.13;457508;115;930343;-69
2022/03/23 04:26:05;;;;;;;15.48;12.50;;;;;;;-0.48;57.36;102569.26;457062;115;922547;-68
2022/03/23 04:27:09;;;;;;;13.19;11.84;;;;;;;-0.49;57.41;102565.72;457859;115;922988;-67
2022/03/23 04:28:12;;;;;;;12.86;11.64;;;;;;;-0.49;57.41;102565.72;457759;115;930408;-69
2022/03/23 04:29:16;;;;;;;13.03;11.09;;;;;;;-0.49;57.47;102568.39;457706;115;930369;-69
2022/03/23 04:30:21;;;;;;;12.99;10.88;;;;;;;-0.48;57.42;102564.77;457324;115;930403;-70
2022/03/23 04:31:24;;;;;;;11.78;10.64;;;;;;;-0.48;57.45;102562.08;456956;115;930341;-69
2022/03/23 04:32:28;;;;;;;18.06;10.32;;;;;;;-0.47;57.48;102562.95;457132;115;922810;-70
2022/03/23 04:33:33;;;;;;;12.25;10.93;;;;;;;-0.45;57.47;102561.91;456795;115;930463;-67
2022/03/23 04:34:37;;;;;;;11.30;10.24;;;;;;;-0.43;57.52;102562.66;457885;115;922863;-68
2022/03/23 04:35:40;;;;;;;11.34;10.16;;;;;;;-0.40;57.49;102563.44;457840;115;930090;-68
2022/03/23 04:36:44;;;;;;;13.24;9.84;;;;;;;-0.38;57.47;102566.86;458058;115;930196;-70
2022/03/23 04:37:47;;;;;;;12.22;9.74;;;;;;;-0.36;57.54;102563.14;456918;115;922880;-69
2022/03/23 04:38:51;;;;;;;10.80;9.40;;;;;;;-0.31;57.62;102565.53;457056;115;930278;-69
2022/03/23 04:39:54;;;;;;;11.35;9.86;;;;;;;-0.27;57.58;102564.37;455685;115;930524;-69
2022/03/23 04:40:58;;;;;;;11.26;9.23;;;;;;;-0.24;57.62;102566.88;457363;115;922471;-68
2022/03/23 04:42:02;;;;;;;9.78;8.78;;;;;;;-0.20;57.55;102571.08;457795;115;931119;-68
2022/03/23 04:43:05;;;;;;;12.25;8.64;;;;;;;-0.19;57.45;102570.13;457164;115;922606;-69
2022/03/23 04:44:09;;;;;;;9.68;8.68;;;;;;;-0.17;57.40;102566.41;456944;115;922935;-68
2022/03/23 04:45:13;;;;;;;10.21;9.21;;;;;;;-0.15;57.41;102564.47;457026;115;930491;-69
2022/03/23 04:46:17;;;;;;;12.24;9.26;;;;;;;-0.12;57.44;102568.78;457219;115;922507;-70
2022/03/23 04:47:21;;;;;;;10.06;9.05;;;;;;;-0.08;57.46;102567.62;457077;115;922721;-68
2022/03/23 04:48:24;;;;;;;8.45;7.64;;;;;;;-0.06;57.47;102569.27;457003;115;930557;-70
2022/03/23 04:49:28;;;;;;;11.32;8.78;;;;;;;-0.02;57.43;102568.09;457039;115;922805;-69
2022/03/23 04:50:32;;;;;;;9.79;8.48;;;;;;;0.02;57.44;102570.56;457090;115;923307;-69
2022/03/23 04:51:36;;;;;;;10.63;9.04;;;;;;;0.05;57.46;102565.89;457679;115;923726;-69
2022/03/23 04:52:41;;;;;;;11.53;9.20;;;;;;;0.07;57.41;102566.63;457734;115;924005;-70
2022/03/23 04:53:45;;;;;;;13.89;9.27;;;;;;;0.09;57.35;102563.86;457795;115;922659;-70
2022/03/23 04:54:48;;;;;;;10.25;8.48;;;;;;;0.11;57.40;102565.47;457790;115;922817;-68
2022/03/23 04:55:54;;;;;;;11.37;9.51;;;;;;;0.12;57.38;102572.56;457185;115;922571;-70
2022/03/23 04:56:57;;;;;;;13.84;9.07;;;;;;;0.15;57.34;102571.52;457070;115;922579;-70
2022/03/23 04:58:00;;;;;;;9.78;8.62;;;;;;;0.15;57.32;102569.70;457099;115;922814;-69
2022/03/23 04:59:04;;;;;;;12.65;9.56;;;;;;;0.16;57.35;102566.06;457113;115;922915;-68
2022/03/23 05:00:11;;;;;;;11.39;8.85;;;;;;;0.20;57.30;102564.03;457051;115;922991;-69